sensor_id;sensor_type;location;lat;lon;timestamp;temperature;humidity
5218;DHT22;26539;51.064;6.346;2022-09-03T00:02:19;18.80;1.10
5218;DHT22;26539;51.064;6.346;2022-09-03T00:10:08;18.70;1.00
5218;DHT22;26539;51.064;6.346;2022-09-03T00:12:41;18.60;10.30
5218;DHT22;26539;51.064;6.346;2022-09-03T00:15:14;18.60;1.70
5218;DHT22;26539;51.064;6.346;2022-09-03T00:17:52;18.50;2.10
5218;DHT22;26539;51.064;6.346;2022-09-03T00:20:20;18.50;2.40
5218;DHT22;26539;51.064;6.346;2022-09-03T00:22:50;18.40;2.40
5218;DHT22;26539;51.064;6.346;2022-09-03T00:25:42;18.40;3.20
5218;DHT22;26539;51.064;6.346;2022-09-03T00:28:15;18.30;3.00
5218;DHT22;26539;51.064;6.346;2022-09-03T00:30:45;18.30;3.30
5218;DHT22;26539;51.064;6.346;2022-09-03T00:33:20;18.30;3.80
5218;DHT22;26539;51.064;6.346;2022-09-03T00:36:01;18.20;4.00
5218;DHT22;26539;51.064;6.346;2022-09-03T00:38:28;18.20;4.10
5218;DHT22;26539;51.064;6.346;2022-09-03T00:52:22;18.10;6.00
5218;DHT22;26539;51.064;6.346;2022-09-03T00:55:19;18.00;6.40
5218;DHT22;26539;51.064;6.346;2022-09-03T00:58:25;18.00;7.10
5218;DHT22;26539;51.064;6.346;2022-09-03T01:00:55;18.00;7.10
5218;DHT22;26539;51.064;6.346;2022-09-03T01:25:53;17.70;9.70
5218;DHT22;26539;51.064;6.346;2022-09-03T01:28:37;17.70;10.30
5218;DHT22;26539;51.064;6.346;2022-09-03T01:34:24;17.60;10.40
5218;DHT22;26539;51.064;6.346;2022-09-03T01:37:33;17.60;10.50
5218;DHT22;26539;51.064;6.346;2022-09-03T01:46:11;17.50;12.20
5218;DHT22;26539;51.064;6.346;2022-09-03T01:49:02;17.50;12.30
5218;DHT22;26539;51.064;6.346;2022-09-03T01:51:30;17.50;13.10
5218;DHT22;26539;51.064;6.346;2022-09-03T01:59:40;17.40;13.90
5218;DHT22;26539;51.064;6.346;2022-09-03T02:02:36;17.40;14.30
5218;DHT22;26539;51.064;6.346;2022-09-03T02:05:06;17.30;14.90
5218;DHT22;26539;51.064;6.346;2022-09-03T02:07:39;17.30;15.80
5218;DHT22;26539;51.064;6.346;2022-09-03T02:10:10;17.30;15.90
5218;DHT22;26539;51.064;6.346;2022-09-03T02:12:37;17.20;15.80
5218;DHT22;26539;51.064;6.346;2022-09-03T02:15:12;17.20;16.80
5218;DHT22;26539;51.064;6.346;2022-09-03T02:17:40;17.20;17.00
5218;DHT22;26539;51.064;6.346;2022-09-03T02:20:16;17.20;17.40
5218;DHT22;26539;51.064;6.346;2022-09-03T02:22:44;17.20;17.70
5218;DHT22;26539;51.064;6.346;2022-09-03T02:25:10;17.20;19.30
5218;DHT22;26539;51.064;6.346;2022-09-03T02:27:37;17.10;18.50
5218;DHT22;26539;51.064;6.346;2022-09-03T02:30:03;17.10;18.80
5218;DHT22;26539;51.064;6.346;2022-09-03T02:32:29;17.10;19.20
5218;DHT22;26539;51.064;6.346;2022-09-03T02:34:56;17.10;19.80
5218;DHT22;26539;51.064;6.346;2022-09-03T02:37:22;17.10;19.90
5218;DHT22;26539;51.064;6.346;2022-09-03T02:39:48;17.10;20.40
5218;DHT22;26539;51.064;6.346;2022-09-03T02:42:16;17.10;20.60
5218;DHT22;26539;51.064;6.346;2022-09-03T02:44:56;17.10;21.00
5218;DHT22;26539;51.064;6.346;2022-09-03T02:47:28;17.10;22.20
5218;DHT22;26539;51.064;6.346;2022-09-03T02:49:55;17.00;21.80
5218;DHT22;26539;51.064;6.346;2022-09-03T02:52:21;17.10;22.00
5218;DHT22;26539;51.064;6.346;2022-09-03T02:54:46;17.00;22.30
5218;DHT22;26539;51.064;6.346;2022-09-03T02:57:16;17.00;21.90
5218;DHT22;26539;51.064;6.346;2022-09-03T02:59:42;17.00;22.90
5218;DHT22;26539;51.064;6.346;2022-09-03T03:02:11;17.00;23.60
5218;DHT22;26539;51.064;6.346;2022-09-03T03:04:39;17.00;24.00
5218;DHT22;26539;51.064;6.346;2022-09-03T03:07:05;17.00;23.80
5218;DHT22;26539;51.064;6.346;2022-09-03T03:09:31;17.00;25.00
5218;DHT22;26539;51.064;6.346;2022-09-03T03:11:57;17.00;24.90
5218;DHT22;26539;51.064;6.346;2022-09-03T03:14:23;17.00;25.40
5218;DHT22;26539;51.064;6.346;2022-09-03T03:16:49;17.00;25.50
5218;DHT22;26539;51.064;6.346;2022-09-03T03:19:15;17.00;25.40
5218;DHT22;26539;51.064;6.346;2022-09-03T03:21:40;16.90;25.50
5218;DHT22;26539;51.064;6.346;2022-09-03T03:24:06;17.00;26.20
5218;DHT22;26539;51.064;6.346;2022-09-03T03:26:40;17.00;26.60
5218;DHT22;26539;51.064;6.346;2022-09-03T03:29:06;17.00;26.40
5218;DHT22;26539;51.064;6.346;2022-09-03T03:31:32;17.00;26.80
5218;DHT22;26539;51.064;6.346;2022-09-03T03:34:00;17.00;27.30
5218;DHT22;26539;51.064;6.346;2022-09-03T03:36:29;17.00;27.50
5218;DHT22;26539;51.064;6.346;2022-09-03T03:38:56;17.00;27.80
5218;DHT22;26539;51.064;6.346;2022-09-03T03:41:33;17.00;28.40
5218;DHT22;26539;51.064;6.346;2022-09-03T03:44:02;17.10;28.70
5218;DHT22;26539;51.064;6.346;2022-09-03T03:46:31;17.00;28.70
5218;DHT22;26539;51.064;6.346;2022-09-03T03:48:57;17.00;29.30
5218;DHT22;26539;51.064;6.346;2022-09-03T03:51:22;17.00;29.60
5218;DHT22;26539;51.064;6.346;2022-09-03T03:53:48;17.00;30.00
5218;DHT22;26539;51.064;6.346;2022-09-03T03:56:14;17.10;30.40
5218;DHT22;26539;51.064;6.346;2022-09-03T03:58:42;17.10;30.40
5218;DHT22;26539;51.064;6.346;2022-09-03T04:01:09;17.10;30.90
5218;DHT22;26539;51.064;6.346;2022-09-03T04:03:35;17.10;31.20
5218;DHT22;26539;51.064;6.346;2022-09-03T04:06:02;17.10;31.60
5218;DHT22;26539;51.064;6.346;2022-09-03T04:08:29;17.10;31.80
5218;DHT22;26539;51.064;6.346;2022-09-03T04:10:59;17.10;31.90
5218;DHT22;26539;51.064;6.346;2022-09-03T04:13:31;17.10;32.20
5218;DHT22;26539;51.064;6.346;2022-09-03T04:16:08;17.10;32.80
5218;DHT22;26539;51.064;6.346;2022-09-03T04:18:35;17.10;32.80
5218;DHT22;26539;51.064;6.346;2022-09-03T04:21:06;17.10;33.60
5218;DHT22;26539;51.064;6.346;2022-09-03T04:23:33;17.10;33.50
5218;DHT22;26539;51.064;6.346;2022-09-03T04:25:59;17.10;33.20
5218;DHT22;26539;51.064;6.346;2022-09-03T04:28:26;17.10;33.60
5218;DHT22;26539;51.064;6.346;2022-09-03T04:30:52;17.10;34.20
5218;DHT22;26539;51.064;6.346;2022-09-03T04:33:18;17.10;34.40
5218;DHT22;26539;51.064;6.346;2022-09-03T04:35:44;17.20;34.80
5218;DHT22;26539;51.064;6.346;2022-09-03T04:38:09;17.20;34.60
5218;DHT22;26539;51.064;6.346;2022-09-03T04:40:35;17.20;34.70
5218;DHT22;26539;51.064;6.346;2022-09-03T04:43:02;17.20;33.90
5218;DHT22;26539;51.064;6.346;2022-09-03T04:45:28;17.20;34.60
5218;DHT22;26539;51.064;6.346;2022-09-03T04:48:01;17.20;34.40
5218;DHT22;26539;51.064;6.346;2022-09-03T04:50:27;17.30;35.50
5218;DHT22;26539;51.064;6.346;2022-09-03T04:53:06;17.30;34.90
5218;DHT22;26539;51.064;6.346;2022-09-03T04:55:36;17.30;35.30
5218;DHT22;26539;51.064;6.346;2022-09-03T04:58:03;17.30;35.40
5218;DHT22;26539;51.064;6.346;2022-09-03T05:00:29;17.40;48.30
5218;DHT22;26539;51.064;6.346;2022-09-03T05:03:00;17.40;35.80
5218;DHT22;26539;51.064;6.346;2022-09-03T05:05:26;17.40;35.10
5218;DHT22;26539;51.064;6.346;2022-09-03T05:07:52;17.50;35.30
5218;DHT22;26539;51.064;6.346;2022-09-03T05:10:17;17.60;35.90
5218;DHT22;26539;51.064;6.346;2022-09-03T05:12:47;17.60;35.00
5218;DHT22;26539;51.064;6.346;2022-09-03T05:15:14;17.60;35.20
5218;DHT22;26539;51.064;6.346;2022-09-03T05:17:40;17.70;35.30
5218;DHT22;26539;51.064;6.346;2022-09-03T05:20:06;17.70;35.00
5218;DHT22;26539;51.064;6.346;2022-09-03T05:22:33;17.70;35.20
5218;DHT22;26539;51.064;6.346;2022-09-03T05:24:59;17.80;35.40
5218;DHT22;26539;51.064;6.346;2022-09-03T05:27:24;17.80;35.20
5218;DHT22;26539;51.064;6.346;2022-09-03T05:29:52;17.90;35.60
5218;DHT22;26539;51.064;6.346;2022-09-03T05:32:25;18.00;35.30
5218;DHT22;26539;51.064;6.346;2022-09-03T05:34:52;18.00;35.40
5218;DHT22;26539;51.064;6.346;2022-09-03T05:37:18;18.10;35.50
5218;DHT22;26539;51.064;6.346;2022-09-03T05:39:44;18.20;35.30
5218;DHT22;26539;51.064;6.346;2022-09-03T05:42:09;18.30;35.60
5218;DHT22;26539;51.064;6.346;2022-09-03T05:44:36;20.40;42.20
5218;DHT22;26539;51.064;6.346;2022-09-03T05:47:03;24.50;50.50
5218;DHT22;26539;51.064;6.346;2022-09-03T05:49:32;28.10;55.60
5218;DHT22;26539;51.064;6.346;2022-09-03T05:52:00;31.10;57.90
5218;DHT22;26539;51.064;6.346;2022-09-03T05:54:25;33.40;57.40
5218;DHT22;26539;51.064;6.346;2022-09-03T05:56:51;33.80;50.70
5218;DHT22;26539;51.064;6.346;2022-09-03T05:59:16;35.70;47.50
5218;DHT22;26539;51.064;6.346;2022-09-03T06:01:44;37.50;42.70
5218;DHT22;26539;51.064;6.346;2022-09-03T06:04:13;39.00;35.40
5218;DHT22;26539;51.064;6.346;2022-09-03T06:06:43;40.10;28.70
5218;DHT22;26539;51.064;6.346;2022-09-03T06:09:15;41.30;23.30
5218;DHT22;26539;51.064;6.346;2022-09-03T06:11:43;42.20;18.70
5218;DHT22;26539;51.064;6.346;2022-09-03T06:14:10;43.10;14.20
5218;DHT22;26539;51.064;6.346;2022-09-03T06:16:46;43.70;9.60
5218;DHT22;26539;51.064;6.346;2022-09-03T06:19:13;44.50;5.60
5218;DHT22;26539;51.064;6.346;2022-09-03T06:21:44;44.90;1.00
5218;DHT22;26539;51.064;6.346;2022-09-03T06:24:13;45.20;1.00
5218;DHT22;26539;51.064;6.346;2022-09-03T06:26:39;40.60;1.00
5218;DHT22;26539;51.064;6.346;2022-09-03T06:29:05;38.90;1.00
5218;DHT22;26539;51.064;6.346;2022-09-03T06:31:33;40.40;1.00
5218;DHT22;26539;51.064;6.346;2022-09-03T06:34:02;42.10;1.00
5218;DHT22;26539;51.064;6.346;2022-09-03T06:36:27;43.40;1.00
5218;DHT22;26539;51.064;6.346;2022-09-03T06:38:54;44.70;1.00
5218;DHT22;26539;51.064;6.346;2022-09-03T06:41:23;45.40;1.00
5218;DHT22;26539;51.064;6.346;2022-09-03T06:44:00;46.00;1.00
5218;DHT22;26539;51.064;6.346;2022-09-03T06:46:28;43.70;1.00
5218;DHT22;26539;51.064;6.346;2022-09-03T06:48:55;44.50;1.00
5218;DHT22;26539;51.064;6.346;2022-09-03T06:51:26;45.40;1.00
5218;DHT22;26539;51.064;6.346;2022-09-03T06:53:54;46.40;1.00
5218;DHT22;26539;51.064;6.346;2022-09-03T06:56:24;45.60;1.00
5218;DHT22;26539;51.064;6.346;2022-09-03T06:58:54;44.90;1.00
5218;DHT22;26539;51.064;6.346;2022-09-03T07:01:23;45.80;1.00
5218;DHT22;26539;51.064;6.346;2022-09-03T07:03:55;47.30;1.00
5218;DHT22;26539;51.064;6.346;2022-09-03T07:06:22;48.20;1.00
5218;DHT22;26539;51.064;6.346;2022-09-03T07:08:49;44.80;1.00
5218;DHT22;26539;51.064;6.346;2022-09-03T07:11:16;44.20;1.00
5218;DHT22;26539;51.064;6.346;2022-09-03T07:13:49;45.60;1.00
5218;DHT22;26539;51.064;6.346;2022-09-03T07:16:20;46.70;1.00
5218;DHT22;26539;51.064;6.346;2022-09-03T07:18:47;47.30;1.00
5218;DHT22;26539;51.064;6.346;2022-09-03T07:21:15;47.20;1.00
5218;DHT22;26539;51.064;6.346;2022-09-03T07:23:42;47.60;1.00
5218;DHT22;26539;51.064;6.346;2022-09-03T07:26:10;47.70;1.00
5218;DHT22;26539;51.064;6.346;2022-09-03T07:28:38;48.00;1.00
5218;DHT22;26539;51.064;6.346;2022-09-03T07:31:09;46.80;1.00
5218;DHT22;26539;51.064;6.346;2022-09-03T07:33:39;47.10;1.00
5218;DHT22;26539;51.064;6.346;2022-09-03T07:36:10;47.90;1.00
5218;DHT22;26539;51.064;6.346;2022-09-03T07:38:36;47.80;1.00
5218;DHT22;26539;51.064;6.346;2022-09-03T07:41:04;47.10;1.00
5218;DHT22;26539;51.064;6.346;2022-09-03T07:43:38;47.20;1.00
5218;DHT22;26539;51.064;6.346;2022-09-03T07:46:05;44.40;1.00
5218;DHT22;26539;51.064;6.346;2022-09-03T07:48:31;45.70;1.00
5218;DHT22;26539;51.064;6.346;2022-09-03T07:51:00;46.30;1.00
5218;DHT22;26539;51.064;6.346;2022-09-03T07:53:27;46.30;1.00
5218;DHT22;26539;51.064;6.346;2022-09-03T07:56:03;46.90;1.00
5218;DHT22;26539;51.064;6.346;2022-09-03T07:58:30;47.50;1.00
5218;DHT22;26539;51.064;6.346;2022-09-03T08:00:57;46.90;1.00
5218;DHT22;26539;51.064;6.346;2022-09-03T08:03:23;47.40;1.00
5218;DHT22;26539;51.064;6.346;2022-09-03T08:05:48;48.10;1.00
5218;DHT22;26539;51.064;6.346;2022-09-03T08:08:14;48.10;1.00
5218;DHT22;26539;51.064;6.346;2022-09-03T08:10:40;48.40;1.00
5218;DHT22;26539;51.064;6.346;2022-09-03T08:13:06;48.50;1.00
5218;DHT22;26539;51.064;6.346;2022-09-03T08:15:32;48.10;1.00
5218;DHT22;26539;51.064;6.346;2022-09-03T08:18:02;48.40;1.00
5218;DHT22;26539;51.064;6.346;2022-09-03T08:20:28;49.20;1.00
5218;DHT22;26539;51.064;6.346;2022-09-03T08:23:02;49.60;1.00
5218;DHT22;26539;51.064;6.346;2022-09-03T08:25:28;49.50;1.00
5218;DHT22;26539;51.064;6.346;2022-09-03T08:27:57;49.30;1.00
5218;DHT22;26539;51.064;6.346;2022-09-03T08:30:23;49.30;1.00
5218;DHT22;26539;51.064;6.346;2022-09-03T08:32:49;49.20;1.00
5218;DHT22;26539;51.064;6.346;2022-09-03T08:35:15;48.70;1.00
5218;DHT22;26539;51.064;6.346;2022-09-03T08:37:40;47.90;1.00
5218;DHT22;26539;51.064;6.346;2022-09-03T08:40:06;47.50;1.00
5218;DHT22;26539;51.064;6.346;2022-09-03T08:42:40;46.70;1.00
5218;DHT22;26539;51.064;6.346;2022-09-03T08:45:19;46.30;1.00
5218;DHT22;26539;51.064;6.346;2022-09-03T08:48:04;46.70;1.00
5218;DHT22;26539;51.064;6.346;2022-09-03T08:50:35;46.80;1.00
5218;DHT22;26539;51.064;6.346;2022-09-03T08:54:09;46.60;1.00
5218;DHT22;26539;51.064;6.346;2022-09-03T08:56:08;45.90;1.00
5218;DHT22;26539;51.064;6.346;2022-09-03T08:58:35;46.20;1.00
5218;DHT22;26539;51.064;6.346;2022-09-03T09:01:36;46.80;1.00
5218;DHT22;26539;51.064;6.346;2022-09-03T09:09:40;47.90;1.00
5218;DHT22;26539;51.064;6.346;2022-09-03T09:12:32;47.70;1.00
5218;DHT22;26539;51.064;6.346;2022-09-03T09:23:30;46.70;1.00
5218;DHT22;26539;51.064;6.346;2022-09-03T09:26:00;46.70;1.00
5218;DHT22;26539;51.064;6.346;2022-09-03T09:28:34;46.60;1.00
5218;DHT22;26539;51.064;6.346;2022-09-03T09:31:00;45.80;1.00
5218;DHT22;26539;51.064;6.346;2022-09-03T09:33:29;45.50;1.00
5218;DHT22;26539;51.064;6.346;2022-09-03T09:36:05;45.00;1.00
5218;DHT22;26539;51.064;6.346;2022-09-03T09:38:35;45.10;1.00
5218;DHT22;26539;51.064;6.346;2022-09-03T09:41:15;44.90;1.00
5218;DHT22;26539;51.064;6.346;2022-09-03T09:43:42;45.10;1.00
5218;DHT22;26539;51.064;6.346;2022-09-03T09:46:12;45.00;1.00
5218;DHT22;26539;51.064;6.346;2022-09-03T09:48:52;44.90;1.00
5218;DHT22;26539;51.064;6.346;2022-09-03T09:51:19;45.00;1.00
5218;DHT22;26539;51.064;6.346;2022-09-03T09:53:45;45.70;1.00
5218;DHT22;26539;51.064;6.346;2022-09-03T09:56:24;46.50;1.00
5218;DHT22;26539;51.064;6.346;2022-09-03T09:59:04;46.70;1.00
5218;DHT22;26539;51.064;6.346;2022-09-03T10:01:30;46.90;1.00
5218;DHT22;26539;51.064;6.346;2022-09-03T10:04:07;46.80;1.00
5218;DHT22;26539;51.064;6.346;2022-09-03T10:06:34;46.60;1.00
5218;DHT22;26539;51.064;6.346;2022-09-03T10:15:04;44.50;1.00
5218;DHT22;26539;51.064;6.346;2022-09-03T10:17:48;44.20;1.00
5218;DHT22;26539;51.064;6.346;2022-09-03T10:23:24;44.40;1.00
5218;DHT22;26539;51.064;6.346;2022-09-03T10:26:06;44.80;1.00
5218;DHT22;26539;51.064;6.346;2022-09-03T10:28:35;44.70;1.00
5218;DHT22;26539;51.064;6.346;2022-09-03T10:33:59;41.60;1.00
5218;DHT22;26539;51.064;6.346;2022-09-03T10:42:45;40.30;1.00
5218;DHT22;26539;51.064;6.346;2022-09-03T10:50:26;37.80;1.00
5218;DHT22;26539;51.064;6.346;2022-09-03T11:03:47;35.30;1.00
5218;DHT22;26539;51.064;6.346;2022-09-03T11:06:21;35.20;1.00
5218;DHT22;26539;51.064;6.346;2022-09-03T11:12:16;35.40;1.00
5218;DHT22;26539;51.064;6.346;2022-09-03T11:14:50;36.40;1.00
5218;DHT22;26539;51.064;6.346;2022-09-03T11:17:27;38.00;1.00
5218;DHT22;26539;51.064;6.346;2022-09-03T11:22:41;41.20;1.00
5218;DHT22;26539;51.064;6.346;2022-09-03T11:25:10;42.00;1.00
5218;DHT22;26539;51.064;6.346;2022-09-03T11:30:21;43.10;1.00
5218;DHT22;26539;51.064;6.346;2022-09-03T11:32:54;43.10;1.00
5218;DHT22;26539;51.064;6.346;2022-09-03T11:35:37;42.70;1.00
5218;DHT22;26539;51.064;6.346;2022-09-03T11:38:04;42.20;1.00
5218;DHT22;26539;51.064;6.346;2022-09-03T11:40:56;40.50;1.00
5218;DHT22;26539;51.064;6.346;2022-09-03T11:43:29;40.40;1.00
5218;DHT22;26539;51.064;6.346;2022-09-03T11:54:24;42.20;1.00
5218;DHT22;26539;51.064;6.346;2022-09-03T11:56:49;42.10;1.00
5218;DHT22;26539;51.064;6.346;2022-09-03T11:59:23;41.50;1.00
5218;DHT22;26539;51.064;6.346;2022-09-03T12:04:17;40.90;1.00
5218;DHT22;26539;51.064;6.346;2022-09-03T12:12:54;40.20;1.00
5218;DHT22;26539;51.064;6.346;2022-09-03T12:16:11;40.20;1.00
5218;DHT22;26539;51.064;6.346;2022-09-03T12:18:32;40.50;1.00
5218;DHT22;26539;51.064;6.346;2022-09-03T12:21:01;40.40;1.00
5218;DHT22;26539;51.064;6.346;2022-09-03T12:25:55;40.30;1.00
5218;DHT22;26539;51.064;6.346;2022-09-03T12:28:23;40.00;1.00
5218;DHT22;26539;51.064;6.346;2022-09-03T12:30:50;39.70;1.00
5218;DHT22;26539;51.064;6.346;2022-09-03T12:33:22;40.00;1.00
5218;DHT22;26539;51.064;6.346;2022-09-03T12:35:57;40.00;1.00
5218;DHT22;26539;51.064;6.346;2022-09-03T12:38:25;39.90;1.00
5218;DHT22;26539;51.064;6.346;2022-09-03T12:40:51;40.00;1.00
5218;DHT22;26539;51.064;6.346;2022-09-03T12:43:17;39.50;1.00
5218;DHT22;26539;51.064;6.346;2022-09-03T12:45:45;38.90;1.00
5218;DHT22;26539;51.064;6.346;2022-09-03T12:48:15;38.50;1.00
5218;DHT22;26539;51.064;6.346;2022-09-03T12:50:42;38.40;1.00
5218;DHT22;26539;51.064;6.346;2022-09-03T12:53:11;38.50;1.00
5218;DHT22;26539;51.064;6.346;2022-09-03T12:55:42;38.50;1.00
5218;DHT22;26539;51.064;6.346;2022-09-03T13:01:09;38.50;1.00
5218;DHT22;26539;51.064;6.346;2022-09-03T13:03:49;38.50;1.00
5218;DHT22;26539;51.064;6.346;2022-09-03T13:06:27;38.90;1.00
5218;DHT22;26539;51.064;6.346;2022-09-03T13:09:00;39.20;1.00
5218;DHT22;26539;51.064;6.346;2022-09-03T13:11:26;39.40;1.00
5218;DHT22;26539;51.064;6.346;2022-09-03T13:14:04;39.10;1.00
5218;DHT22;26539;51.064;6.346;2022-09-03T13:30:04;38.70;1.00
5218;DHT22;26539;51.064;6.346;2022-09-03T13:32:56;38.90;1.00
5218;DHT22;26539;51.064;6.346;2022-09-03T13:35:48;38.90;1.00
5218;DHT22;26539;51.064;6.346;2022-09-03T13:40:55;38.20;1.00
5218;DHT22;26539;51.064;6.346;2022-09-03T13:43:40;38.10;1.00
5218;DHT22;26539;51.064;6.346;2022-09-03T13:46:32;37.60;1.00
5218;DHT22;26539;51.064;6.346;2022-09-03T13:49:01;37.20;1.00
5218;DHT22;26539;51.064;6.346;2022-09-03T13:52:16;36.80;1.00
5218;DHT22;26539;51.064;6.346;2022-09-03T13:54:51;36.50;1.00
5218;DHT22;26539;51.064;6.346;2022-09-03T13:57:24;36.50;1.00
5218;DHT22;26539;51.064;6.346;2022-09-03T14:07:33;36.20;1.00
5218;DHT22;26539;51.064;6.346;2022-09-03T14:12:46;36.30;1.00
5218;DHT22;26539;51.064;6.346;2022-09-03T14:15:21;36.20;1.00
5218;DHT22;26539;51.064;6.346;2022-09-03T14:20:57;35.30;1.00
5218;DHT22;26539;51.064;6.346;2022-09-03T14:23:30;34.60;1.00
5218;DHT22;26539;51.064;6.346;2022-09-03T14:26:01;34.30;1.00
5218;DHT22;26539;51.064;6.346;2022-09-03T14:28:35;34.50;1.00
5218;DHT22;26539;51.064;6.346;2022-09-03T14:36:19;34.20;1.00
5218;DHT22;26539;51.064;6.346;2022-09-03T14:39:07;34.00;1.00
5218;DHT22;26539;51.064;6.346;2022-09-03T14:47:17;34.10;1.00
5218;DHT22;26539;51.064;6.346;2022-09-03T14:55:28;32.60;1.00
5218;DHT22;26539;51.064;6.346;2022-09-03T15:00:51;32.10;1.00
5218;DHT22;26539;51.064;6.346;2022-09-03T15:09:27;32.10;1.00
5218;DHT22;26539;51.064;6.346;2022-09-03T15:11:31;31.80;1.00
5218;DHT22;26539;51.064;6.346;2022-09-03T15:16:44;31.20;1.00
5218;DHT22;26539;51.064;6.346;2022-09-03T15:22:38;30.90;1.00
5218;DHT22;26539;51.064;6.346;2022-09-03T15:28:10;30.50;1.00
5218;DHT22;26539;51.064;6.346;2022-09-03T15:33:41;30.30;1.00
5218;DHT22;26539;51.064;6.346;2022-09-03T15:36:26;30.10;1.00
5218;DHT22;26539;51.064;6.346;2022-09-03T15:39:02;29.90;1.00
5218;DHT22;26539;51.064;6.346;2022-09-03T15:42:23;29.80;1.00
5218;DHT22;26539;51.064;6.346;2022-09-03T15:44:27;29.70;1.00
5218;DHT22;26539;51.064;6.346;2022-09-03T15:47:04;29.60;1.00
5218;DHT22;26539;51.064;6.346;2022-09-03T15:50:05;29.50;1.00
5218;DHT22;26539;51.064;6.346;2022-09-03T15:55:39;29.60;1.00
5218;DHT22;26539;51.064;6.346;2022-09-03T15:58:40;29.60;1.00
5218;DHT22;26539;51.064;6.346;2022-09-03T16:01:21;29.60;1.00
5218;DHT22;26539;51.064;6.346;2022-09-03T16:09:58;29.40;1.00
5218;DHT22;26539;51.064;6.346;2022-09-03T16:15:23;29.20;1.80
5218;DHT22;26539;51.064;6.346;2022-09-03T16:18:22;29.30;2.80
5218;DHT22;26539;51.064;6.346;2022-09-03T16:23:57;29.20;3.40
5218;DHT22;26539;51.064;6.346;2022-09-03T16:26:33;29.00;13.40
5218;DHT22;26539;51.064;6.346;2022-09-03T16:29:10;29.00;4.90
5218;DHT22;26539;51.064;6.346;2022-09-03T16:40:14;28.50;6.80
5218;DHT22;26539;51.064;6.346;2022-09-03T16:45:35;28.30;7.70
5218;DHT22;26539;51.064;6.346;2022-09-03T17:00:03;27.60;10.80
5218;DHT22;26539;51.064;6.346;2022-09-03T17:08:41;27.30;14.40
5218;DHT22;26539;51.064;6.346;2022-09-03T17:11:29;27.40;14.70
5218;DHT22;26539;51.064;6.346;2022-09-03T17:14:44;27.30;15.70
5218;DHT22;26539;51.064;6.346;2022-09-03T17:17:27;27.20;16.80
5218;DHT22;26539;51.064;6.346;2022-09-03T17:23:08;26.90;19.40
5218;DHT22;26539;51.064;6.346;2022-09-03T17:25:50;26.70;19.90
5218;DHT22;26539;51.064;6.346;2022-09-03T17:34:01;26.40;23.10
5218;DHT22;26539;51.064;6.346;2022-09-03T17:37:39;26.30;24.40
5218;DHT22;26539;51.064;6.346;2022-09-03T17:52:46;25.80;30.40
5218;DHT22;26539;51.064;6.346;2022-09-03T17:57:46;25.60;33.10
5218;DHT22;26539;51.064;6.346;2022-09-03T18:00:25;25.40;35.40
5218;DHT22;26539;51.064;6.346;2022-09-03T18:05:57;25.30;39.20
5218;DHT22;26539;51.064;6.346;2022-09-03T18:09:04;25.20;41.40
5218;DHT22;26539;51.064;6.346;2022-09-03T18:11:50;25.10;45.40
5218;DHT22;26539;51.064;6.346;2022-09-03T18:14:37;24.90;47.50
5218;DHT22;26539;51.064;6.346;2022-09-03T18:20:00;24.60;54.10
5218;DHT22;26539;51.064;6.346;2022-09-03T18:23:13;24.60;56.70
5218;DHT22;26539;51.064;6.346;2022-09-03T18:26:12;24.50;59.10
5218;DHT22;26539;51.064;6.346;2022-09-03T18:29:05;24.40;65.00
5218;DHT22;26539;51.064;6.346;2022-09-03T18:31:50;24.30;68.60
5218;DHT22;26539;51.064;6.346;2022-09-03T18:34:36;24.30;72.70
5218;DHT22;26539;51.064;6.346;2022-09-03T18:37:26;24.20;75.60
5218;DHT22;26539;51.064;6.346;2022-09-03T18:40:16;24.20;76.70
5218;DHT22;26539;51.064;6.346;2022-09-03T18:43:43;24.20;79.20
5218;DHT22;26539;51.064;6.346;2022-09-03T18:46:39;24.10;83.10
5218;DHT22;26539;51.064;6.346;2022-09-03T18:49:34;24.00;86.10
5218;DHT22;26539;51.064;6.346;2022-09-03T18:52:30;23.80;95.90
5218;DHT22;26539;51.064;6.346;2022-09-03T18:59:06;23.40;99.90
5218;DHT22;26539;51.064;6.346;2022-09-03T19:01:52;23.20;99.90
5218;DHT22;26539;51.064;6.346;2022-09-03T19:07:58;23.00;99.90
5218;DHT22;26539;51.064;6.346;2022-09-03T19:10:50;22.90;99.90
5218;DHT22;26539;51.064;6.346;2022-09-03T19:13:39;22.90;99.90
5218;DHT22;26539;51.064;6.346;2022-09-03T19:22:11;22.70;99.90
5218;DHT22;26539;51.064;6.346;2022-09-03T19:25:04;22.60;99.90
5218;DHT22;26539;51.064;6.346;2022-09-03T19:28:05;22.60;99.90
5218;DHT22;26539;51.064;6.346;2022-09-03T19:34:04;22.40;99.90
5218;DHT22;26539;51.064;6.346;2022-09-03T19:39:55;22.30;99.90
5218;DHT22;26539;51.064;6.346;2022-09-03T19:49:11;22.20;99.90
5218;DHT22;26539;51.064;6.346;2022-09-03T19:52:11;22.20;99.90
5218;DHT22;26539;51.064;6.346;2022-09-03T19:54:57;22.10;99.90
5218;DHT22;26539;51.064;6.346;2022-09-03T19:57:44;22.10;99.90
5218;DHT22;26539;51.064;6.346;2022-09-03T20:00:30;22.20;99.90
5218;DHT22;26539;51.064;6.346;2022-09-03T20:03:15;22.10;99.90
5218;DHT22;26539;51.064;6.346;2022-09-03T20:06:02;22.10;99.90
5218;DHT22;26539;51.064;6.346;2022-09-03T20:08:49;22.00;99.90
5218;DHT22;26539;51.064;6.346;2022-09-03T20:11:34;21.90;99.90
5218;DHT22;26539;51.064;6.346;2022-09-03T20:14:01;21.80;99.90
5218;DHT22;26539;51.064;6.346;2022-09-03T20:16:53;21.70;1.00
5218;DHT22;26539;51.064;6.346;2022-09-03T20:22:27;21.60;1.00
5218;DHT22;26539;51.064;6.346;2022-09-03T20:24:58;21.60;1.00
5218;DHT22;26539;51.064;6.346;2022-09-03T20:30:14;21.50;1.00
5218;DHT22;26539;51.064;6.346;2022-09-03T20:41:43;21.20;44.20
5218;DHT22;26539;51.064;6.346;2022-09-03T20:52:40;21.20;99.90
5218;DHT22;26539;51.064;6.346;2022-09-03T20:55:24;21.10;99.90
5218;DHT22;26539;51.064;6.346;2022-09-03T20:58:09;21.10;99.90
5218;DHT22;26539;51.064;6.346;2022-09-03T21:01:02;21.10;99.90
5218;DHT22;26539;51.064;6.346;2022-09-03T21:09:16;21.00;1.00
5218;DHT22;26539;51.064;6.346;2022-09-03T21:11:57;21.00;99.90
5218;DHT22;26539;51.064;6.346;2022-09-03T21:14:38;21.10;99.90
5218;DHT22;26539;51.064;6.346;2022-09-03T21:23:42;21.10;1.00
5218;DHT22;26539;51.064;6.346;2022-09-03T21:26:18;21.00;1.00
5218;DHT22;26539;51.064;6.346;2022-09-03T21:29:08;20.90;1.00
5218;DHT22;26539;51.064;6.346;2022-09-03T21:31:47;20.90;1.00
5218;DHT22;26539;51.064;6.346;2022-09-03T21:34:20;20.80;99.90
5218;DHT22;26539;51.064;6.346;2022-09-03T21:36:49;20.70;99.90
5218;DHT22;26539;51.064;6.346;2022-09-03T21:42:23;20.50;1.00
5218;DHT22;26539;51.064;6.346;2022-09-03T21:47:21;20.50;1.00
5218;DHT22;26539;51.064;6.346;2022-09-03T21:50:18;20.40;1.00
5218;DHT22;26539;51.064;6.346;2022-09-03T22:04:08;20.00;99.90
5218;DHT22;26539;51.064;6.346;2022-09-03T22:09:16;19.90;1.00
5218;DHT22;26539;51.064;6.346;2022-09-03T22:11:54;19.90;7.00
5218;DHT22;26539;51.064;6.346;2022-09-03T22:14:23;19.80;99.90
5218;DHT22;26539;51.064;6.346;2022-09-03T22:16:53;19.80;99.90
5218;DHT22;26539;51.064;6.346;2022-09-03T22:19:21;19.80;99.90
5218;DHT22;26539;51.064;6.346;2022-09-03T22:24:41;19.70;99.90
5218;DHT22;26539;51.064;6.346;2022-09-03T22:27:31;19.70;1.00
5218;DHT22;26539;51.064;6.346;2022-09-03T22:30:08;19.70;1.00
5218;DHT22;26539;51.064;6.346;2022-09-03T22:35:43;19.70;99.90
5218;DHT22;26539;51.064;6.346;2022-09-03T22:51:11;19.50;99.90
5218;DHT22;26539;51.064;6.346;2022-09-03T22:56:23;19.50;1.00